NL-0041 weather

CLOSED Wieringermeer Glider Field
Noord-Holland, Netherlands

Public forecast

Using degrees Celsius for public forecast. Weather courtesy of forecast.io.

Closest aviation weather report (METAR) to Wieringermeer Glider Field

Closest report is De Kooy Airport, 8.1 nm (15.0 km) NW. Retrieved 2020/02/21 09:25 UTC (8 minutes ago):

EHKD 210925Z AUTO 25016KT 9999 FEW085 BKN091 OVC120 07/04 Q1021 BLU 27021KT CAVOK

Closest aviation forecast (TAF) to Wieringermeer Glider Field

Closest forecast is De Kooy Airport, 8.1 nm (15.0 km) NW. Retrieved 2020/02/21 06:51 UTC (3 hours ago):

TAF EHKD 210543Z 2106/2118 27020KT CAVOK BECMG 2110/2112 23022G35KT TEMPO 2116/2118 SCT018 BKN020